Time;durP1;ratioP1;P1;durP2;ratioP2;P2;SDS_P1;SDS_P2;PMS_P1;PMS_P2;Temp;Humidity;BMP_temperature;BMP_pressure;BME280_temperature;BME280_humidity;BME280_pressure;Samples;Min_cycle;Max_cycle;Signal;HPM_P1;HPM_P2
2021/12/06 00:00:03;;;;;;;18.80;17.00;;;11.90;82.50;;;;;;5073534;28;20020;-74
2021/12/06 00:02:28;;;;;;;17.65;15.95;;;11.90;82.50;;;;;;5073582;28;20499;-78
2021/12/06 00:04:54;;;;;;;18.15;16.25;;;11.90;82.50;;;;;;5073071;28;20111;-78
2021/12/06 00:07:24;;;;;;;16.80;15.13;;;11.90;82.50;;;;;;5073297;28;20538;-78
2021/12/06 00:09:50;;;;;;;18.02;16.23;;;11.90;82.40;;;;;;5073350;28;20358;-78
2021/12/06 00:12:16;;;;;;;18.52;16.65;;;11.90;82.20;;;;;;5073217;28;20036;-77
2021/12/06 00:14:42;;;;;;;18.15;16.23;;;11.90;81.90;;;;;;5073453;28;20039;-78
2021/12/06 00:17:10;;;;;;;17.40;15.70;;;11.90;81.80;;;;;;5073308;28;20029;-61
2021/12/06 00:19:38;;;;;;;19.13;17.30;;;11.80;81.80;;;;;;5072876;28;20078;-61
2021/12/06 00:22:06;;;;;;;18.58;16.67;;;11.90;81.70;;;;;;5073083;28;20040;-61
2021/12/06 00:24:33;;;;;;;17.55;15.75;;;11.80;81.30;;;;;;5073303;28;20073;-62
2021/12/06 00:26:59;;;;;;;18.88;16.08;;;11.80;81.30;;;;;;5073244;28;20435;-61
2021/12/06 00:29:25;;;;;;;20.10;16.80;;;11.80;81.60;;;;;;5073082;28;20578;-61
2021/12/06 00:31:51;;;;;;;17.88;16.00;;;11.80;81.70;;;;;;5073139;28;20056;-61
2021/12/06 00:34:19;;;;;;;17.67;15.88;;;11.80;81.90;;;;;;5072698;28;20106;-66
2021/12/06 00:37:04;;;;;;;18.42;15.82;;;11.80;81.90;;;;;;5073171;28;20085;-64
2021/12/06 00:39:30;;;;;;;17.30;15.60;;;11.80;81.70;;;;;;5073072;28;20028;-62
2021/12/06 00:41:56;;;;;;;17.48;15.68;;;11.80;81.90;;;;;;5073260;28;20425;-68
2021/12/06 00:44:21;;;;;;;17.83;15.95;;;11.80;82.20;;;;;;5073497;28;20032;-61
2021/12/06 00:46:47;;;;;;;17.00;15.20;;;11.80;82.30;;;;;;5076921;28;20038;-63
2021/12/06 00:49:13;;;;;;;18.08;16.25;;;11.80;82.20;;;;;;5076879;28;20025;-63
2021/12/06 00:51:40;;;;;;;18.40;16.50;;;11.80;82.20;;;;;;5077201;28;20470;-61
2021/12/06 00:54:07;;;;;;;18.05;16.35;;;11.80;82.00;;;;;;5077005;28;20024;-61
2021/12/06 00:56:33;;;;;;;17.67;15.63;;;11.80;82.00;;;;;;5077083;28;20108;-61
2021/12/06 00:58:58;;;;;;;16.75;15.10;;;11.80;82.10;;;;;;5076790;28;20509;-66
2021/12/06 01:01:24;;;;;;;16.83;15.15;;;11.80;82.00;;;;;;5076540;28;20078;-65
2021/12/06 01:03:50;;;;;;;16.90;15.15;;;11.80;81.90;;;;;;5075331;28;20120;-61
2021/12/06 01:06:16;;;;;;;17.70;15.90;;;11.70;81.90;;;;;;5076891;28;20047;-62
2021/12/06 01:08:42;;;;;;;17.48;15.77;;;11.70;81.80;;;;;;5076787;28;20091;-61
2021/12/06 01:11:09;;;;;;;16.73;15.05;;;11.70;81.90;;;;;;5076678;28;20024;-61
2021/12/06 01:13:36;;;;;;;16.85;14.75;;;11.70;81.70;;;;;;5076463;28;20485;-63
2021/12/06 01:16:02;;;;;;;18.85;15.70;;;11.70;81.70;;;;;;5076541;28;20062;-74
2021/12/06 01:18:28;;;;;;;17.48;14.98;;;11.70;81.80;;;;;;5075370;28;20099;-61
2021/12/06 01:21:11;;;;;;;16.85;15.18;;;11.70;81.70;;;;;;5076502;28;20116;-62
2021/12/06 01:23:52;;;;;;;16.60;14.90;;;11.70;81.50;;;;;;5076649;28;20012;-66
2021/12/06 01:29:09;;;;;;;17.23;15.52;;;11.70;81.50;;;;;;5076672;28;20039;-73
2021/12/06 01:34:10;;;;;;;17.25;15.45;;;11.60;81.30;;;;;;5076405;28;20033;-73
2021/12/06 01:39:24;;;;;;;17.65;14.35;;;11.60;81.30;;;;;;5076139;28;20043;-74
2021/12/06 01:42:00;;;;;;;17.50;15.70;;;11.60;81.30;;;;;;5076627;28;20025;-71
2021/12/06 01:44:33;;;;;;;17.13;15.32;;;11.60;81.60;;;;;;5075795;28;20043;-65
2021/12/06 01:47:02;;;;;;;17.23;15.48;;;11.60;81.60;;;;;;5075675;28;20036;-61
2021/12/06 01:49:31;;;;;;;17.13;15.35;;;11.60;81.40;;;;;;5076089;28;20120;-61
2021/12/06 01:52:00;;;;;;;16.88;15.13;;;11.60;81.00;;;;;;5076326;28;20024;-70
2021/12/06 01:54:25;;;;;;;17.10;15.38;;;11.50;81.10;;;;;;5077045;28;20043;-69
2021/12/06 01:56:52;;;;;;;17.50;15.70;;;11.50;81.30;;;;;;5076952;28;20021;-61
2021/12/06 01:59:19;;;;;;;21.85;16.30;;;11.60;81.50;;;;;;5075911;28;20113;-68
2021/12/06 02:01:45;;;;;;;17.83;15.93;;;11.50;81.40;;;;;;5076140;28;20016;-63
2021/12/06 02:04:12;;;;;;;17.73;15.93;;;11.50;81.40;;;;;;5075878;28;20025;-61
2021/12/06 02:06:38;;;;;;;17.05;15.25;;;11.50;81.60;;;;;;5075603;28;20032;-63
2021/12/06 02:09:07;;;;;;;18.13;16.13;;;11.50;81.50;;;;;;5075996;28;20066;-61
2021/12/06 02:11:35;;;;;;;19.70;16.13;;;11.50;81.40;;;;;;5075310;28;20386;-61
2021/12/06 02:14:15;;;;;;;17.52;15.57;;;11.50;81.80;;;;;;5075404;28;20033;-61
2021/12/06 02:17:25;;;;;;;18.08;16.27;;;11.50;81.60;;;;;;5075526;28;20025;-63
2021/12/06 02:19:45;;;;;;;17.70;15.90;;;11.50;81.70;;;;;;5074024;28;20385;-61
2021/12/06 02:22:15;;;;;;;17.77;15.90;;;11.50;81.90;;;;;;5075600;28;20058;-61
2021/12/06 02:24:41;;;;;;;19.13;17.23;;;11.50;82.10;;;;;;5075124;28;20027;-64
2021/12/06 02:27:10;;;;;;;20.05;17.33;;;11.40;81.90;;;;;;5075337;28;20020;-61
2021/12/06 02:29:36;;;;;;;18.45;16.50;;;11.40;82.20;;;;;;5075121;28;20531;-61
2021/12/06 02:32:09;;;;;;;19.35;17.38;;;11.40;82.20;;;;;;5075732;28;20028;-61
2021/12/06 02:34:34;;;;;;;;;;;11.40;82.20;;;;;;5075774;28;20520;-61
2021/12/06 02:37:04;;;;;;;17.73;15.82;;;11.40;82.00;;;;;;5075156;28;19904;-62
2021/12/06 02:39:30;;;;;;;21.30;17.38;;;11.40;82.20;;;;;;5075245;28;20481;-61
2021/12/06 02:41:58;;;;;;;19.92;17.83;;;11.40;82.10;;;;;;5075898;28;20017;-73
2021/12/06 02:44:24;;;;;;;20.58;18.48;;;11.40;82.20;;;;;;5076010;28;20040;-71
2021/12/06 02:46:50;;;;;;;20.33;18.15;;;11.40;82.20;;;;;;5075609;28;20119;-73
2021/12/06 02:49:16;;;;;;;20.58;18.35;;;11.40;82.20;;;;;;5076028;28;20045;-67
2021/12/06 02:51:42;;;;;;;19.35;16.83;;;11.40;82.30;;;;;;5075668;28;20055;-73
2021/12/06 02:54:09;;;;;;;20.52;18.42;;;11.40;82.30;;;;;;5076102;28;20031;-76
2021/12/06 02:56:51;;;;;;;19.10;17.10;;;11.40;82.40;;;;;;5075629;28;20063;-75
2021/12/06 02:59:17;;;;;;;19.43;17.30;;;11.30;82.20;;;;;;5075617;28;20031;-75
2021/12/06 03:01:51;;;;;;;19.38;17.27;;;11.40;82.20;;;;;;5075980;28;20021;-76
2021/12/06 03:04:18;;;;;;;20.63;18.10;;;11.30;82.30;;;;;;5076622;28;20021;-70
2021/12/06 03:06:44;;;;;;;18.17;16.27;;;11.30;82.40;;;;;;5075100;28;20044;-75
2021/12/06 03:09:13;;;;;;;19.23;17.13;;;11.30;82.40;;;;;;5077349;28;20044;-76
2021/12/06 03:11:43;;;;;;;18.25;16.35;;;11.30;82.60;;;;;;5075660;28;20028;-75
2021/12/06 03:14:16;;;;;;;18.77;16.85;;;11.20;82.60;;;;;;5075975;28;20389;-76
2021/12/06 03:16:43;;;;;;;21.25;18.92;;;11.30;82.60;;;;;;5075292;28;20023;-75
2021/12/06 03:19:09;;;;;;;20.30;18.20;;;11.30;82.50;;;;;;5075787;28;20272;-75
2021/12/06 03:21:35;;;;;;;23.30;20.80;;;11.20;82.80;;;;;;5075671;28;20016;-76
2021/12/06 03:24:02;;;;;;;24.30;21.50;;;11.20;82.80;;;;;;5075829;28;20063;-77
2021/12/06 03:26:29;;;;;;;22.48;20.08;;;11.20;83.00;;;;;;5073704;28;20136;-75
2021/12/06 03:28:55;;;;;;;24.58;21.95;;;11.20;83.20;;;;;;5075329;28;20039;-75
2021/12/06 03:31:21;;;;;;;23.83;21.35;;;11.20;83.00;;;;;;5073840;28;20020;-76
2021/12/06 03:33:50;;;;;;;25.42;21.08;;;11.20;83.30;;;;;;5073786;28;20473;-75
2021/12/06 03:36:18;;;;;;;24.63;22.02;;;11.20;83.20;;;;;;5074030;28;20042;-73
2021/12/06 03:38:44;;;;;;;24.08;21.30;;;11.20;83.20;;;;;;5073917;28;20013;-75
2021/12/06 03:41:12;;;;;;;25.02;22.27;;;11.20;83.20;;;;;;5073045;28;20496;-74
2021/12/06 03:43:39;;;;;;;25.70;22.33;;;11.20;83.20;;;;;;5073738;28;20052;-74
2021/12/06 03:46:05;;;;;;;25.42;21.75;;;11.20;83.10;;;;;;5073763;28;20043;-74
2021/12/06 03:48:31;;;;;;;25.27;21.17;;;11.20;83.10;;;;;;5072351;28;20111;-75
2021/12/06 03:50:58;;;;;;;26.42;20.70;;;11.20;83.20;;;;;;5073828;28;20025;-76
2021/12/06 03:53:23;;;;;;;25.98;22.40;;;11.20;83.00;;;;;;5073392;28;20063;-75
2021/12/06 03:55:49;;;;;;;22.63;20.23;;;11.10;82.50;;;;;;5073380;28;20024;-74
2021/12/06 03:58:14;;;;;;;23.33;20.02;;;11.10;82.10;;;;;;5073445;28;20027;-74
2021/12/06 04:00:40;;;;;;;22.75;20.23;;;11.10;82.20;;;;;;5074902;28;20025;-74
2021/12/06 04:03:11;;;;;;;23.02;20.33;;;11.10;82.00;;;;;;5073655;28;20028;-74
2021/12/06 04:05:37;;;;;;;23.67;21.05;;;11.10;81.80;;;;;;5073456;28;20040;-73
2021/12/06 04:08:03;;;;;;;24.00;21.23;;;11.10;81.50;;;;;;5073566;28;20016;-75
2021/12/06 04:10:28;;;;;;;23.42;20.80;;;11.10;81.40;;;;;;5073066;28;20024;-75
2021/12/06 04:12:59;;;;;;;23.38;20.02;;;11.00;81.50;;;;;;5073092;28;20477;-74
2021/12/06 04:15:25;;;;;;;22.08;19.77;;;11.00;81.50;;;;;;5073649;28;20028;-75
2021/12/06 04:17:50;;;;;;;22.33;20.02;;;11.00;81.40;;;;;;5073192;28;20048;-74
2021/12/06 04:20:16;;;;;;;21.17;18.55;;;11.00;81.20;;;;;;5072511;28;20046;-74
2021/12/06 04:22:42;;;;;;;22.52;19.40;;;11.00;81.10;;;;;;5073026;28;20098;-72
2021/12/06 04:25:12;;;;;;;23.10;20.33;;;10.90;81.00;;;;;;5072734;28;20025;-74
2021/12/06 04:27:39;;;;;;;23.83;20.38;;;10.90;81.00;;;;;;5073143;28;20439;-74
2021/12/06 04:30:07;;;;;;;22.23;19.83;;;10.90;80.60;;;;;;5073299;28;20066;-74
2021/12/06 04:32:33;;;;;;;24.58;19.90;;;10.90;80.70;;;;;;5073324;28;20024;-74
2021/12/06 04:34:59;;;;;;;25.00;20.70;;;10.90;80.90;;;;;;5073040;28;20021;-75
2021/12/06 04:37:25;;;;;;;25.98;21.95;;;10.90;81.00;;;;;;5073037;28;20485;-74
2021/12/06 04:39:50;;;;;;;26.10;21.63;;;10.80;80.80;;;;;;5072519;28;20036;-74
2021/12/06 04:42:19;;;;;;;24.77;20.90;;;10.80;80.60;;;;;;5073008;28;20082;-74
2021/12/06 04:44:45;;;;;;;24.40;20.75;;;10.80;80.30;;;;;;5073119;28;20033;-74
2021/12/06 04:47:10;;;;;;;65.90;23.50;;;10.80;80.30;;;;;;5073277;28;20032;-73
2021/12/06 04:49:36;;;;;;;20.80;17.92;;;10.80;79.40;;;;;;5072856;28;20074;-73
2021/12/06 04:52:05;;;;;;;21.08;18.45;;;10.90;76.80;;;;;;5073127;28;20072;-74
2021/12/06 04:54:36;;;;;;;21.50;19.10;;;10.90;75.50;;;;;;5072556;28;20021;-74
2021/12/06 04:57:19;;;;;;;20.33;17.63;;;11.00;75.60;;;;;;5072975;28;20433;-74
2021/12/06 04:59:57;;;;;;;19.17;16.85;;;11.00;74.70;;;;;;5072856;28;20313;-74
2021/12/06 05:02:35;;;;;;;21.33;18.65;;;10.90;74.70;;;;;;5073016;28;20016;-73
2021/12/06 05:05:07;;;;;;;20.98;17.55;;;11.00;74.40;;;;;;5072718;28;20487;-74
2021/12/06 05:07:41;;;;;;;20.02;17.95;;;11.00;74.80;;;;;;5073030;28;20061;-73
2021/12/06 05:10:09;;;;;;;20.25;17.08;;;11.00;75.00;;;;;;5072634;28;20373;-74
2021/12/06 05:12:35;;;;;;;20.30;18.20;;;11.00;75.00;;;;;;5071312;28;20044;-74
2021/12/06 05:15:03;;;;;;;19.48;17.48;;;11.00;74.80;;;;;;5072627;28;20029;-74
2021/12/06 05:17:29;;;;;;;21.90;17.45;;;11.00;75.30;;;;;;5072780;28;20371;-74
2021/12/06 05:19:54;;;;;;;24.48;18.73;;;11.00;75.00;;;;;;5072837;28;20020;-73
2021/12/06 05:22:21;;;;;;;20.95;18.30;;;10.90;75.00;;;;;;5073211;28;20482;-74
2021/12/06 05:24:47;;;;;;;24.67;20.00;;;10.90;75.00;;;;;;5072579;28;20036;-73
2021/12/06 05:27:13;;;;;;;24.88;20.38;;;10.90;75.30;;;;;;5072781;28;20478;-73
2021/12/06 05:29:44;;;;;;;23.10;19.83;;;10.90;75.40;;;;;;5072542;28;20039;-68
2021/12/06 05:32:10;;;;;;;25.67;21.17;;;10.90;75.20;;;;;;5076042;28;20031;-72
2021/12/06 05:34:39;;;;;;;34.88;22.65;;;10.90;75.20;;;;;;5080418;28;20024;-74
2021/12/06 05:37:07;;;;;;;36.28;24.05;;;10.90;75.60;;;;;;5081617;28;20102;-74
2021/12/06 05:39:33;;;;;;;35.47;23.88;;;10.90;75.90;;;;;;5059544;28;20054;-74
2021/12/06 05:42:02;;;;;;;35.22;23.00;;;10.90;75.90;;;;;;5096218;28;20035;-74
2021/12/06 05:44:28;;;;;;;53.22;23.50;;;10.90;76.30;;;;;;5082453;28;20020;-74
2021/12/06 05:46:54;;;;;;;63.15;23.02;;;10.90;76.20;;;;;;5096233;28;20044;-74
2021/12/06 05:49:22;;;;;;;72.65;23.42;;;10.80;76.20;;;;;;5086209;28;20017;-73
2021/12/06 05:51:48;;;;;;;78.03;23.42;;;10.80;76.80;;;;;;5085047;28;20052;-71
2021/12/06 05:54:14;;;;;;;48.70;20.70;;;10.80;77.10;;;;;;5094413;28;20157;-71
2021/12/06 05:56:39;;;;;;;54.67;20.08;;;10.80;77.30;;;;;;5093516;28;20099;-74
2021/12/06 05:59:05;;;;;;;39.80;18.20;;;10.80;76.80;;;;;;5094408;28;20038;-71
2021/12/06 06:01:31;;;;;;;45.67;19.20;;;10.80;76.80;;;;;;5087419;28;20485;-74
2021/12/06 06:04:01;;;;;;;37.55;16.60;;;10.70;76.90;;;;;;5074649;28;20107;-74
2021/12/06 06:06:34;;;;;;;63.08;17.58;;;10.70;77.70;;;;;;5072905;28;20035;-71
2021/12/06 06:09:01;;;;;;;74.20;20.33;;;10.70;77.40;;;;;;5073118;28;20473;-61
2021/12/06 06:11:27;;;;;;;67.45;20.60;;;10.70;77.50;;;;;;5075056;28;20040;-61
2021/12/06 06:13:53;;;;;;;59.25;19.30;;;10.70;77.60;;;;;;5075351;28;20036;-61
2021/12/06 06:16:21;;;;;;;63.90;18.15;;;10.70;77.90;;;;;;5083808;28;20034;-61
2021/12/06 06:18:49;;;;;;;75.22;18.85;;;10.60;78.40;;;;;;5080707;28;20020;-61
2021/12/06 06:21:15;;;;;;;101.28;20.50;;;10.60;78.40;;;;;;5085307;28;20453;-62
2021/12/06 06:23:41;;;;;;;57.10;18.10;;;10.60;79.10;;;;;;5092329;28;20039;-74
2021/12/06 06:26:07;;;;;;;56.35;18.30;;;10.60;78.50;;;;;;5077553;28;20037;-74
2021/12/06 06:28:32;;;;;;;42.83;17.15;;;10.60;78.70;;;;;;5079250;28;20020;-70
2021/12/06 06:30:58;;;;;;;67.85;18.02;;;10.60;78.50;;;;;;5077643;28;20508;-73
2021/12/06 06:33:24;;;;;;;20.45;16.70;;;10.50;78.80;;;;;;5087627;28;20017;-72
2021/12/06 06:35:50;;;;;;;21.23;16.75;;;10.30;80.20;;;;;;5091052;28;20103;-74
2021/12/06 06:38:17;;;;;;;19.40;17.27;;;10.00;81.70;;;;;;5081735;28;20052;-74
2021/12/06 06:40:44;;;;;;;19.15;15.77;;;9.80;82.40;;;;;;5093738;28;20028;-74
2021/12/06 06:43:09;;;;;;;35.38;23.50;;;9.70;82.90;;;;;;5085828;28;20042;-68
2021/12/06 06:45:35;;;;;;;31.23;21.38;;;9.80;84.00;;;;;;5100755;28;20552;-72
2021/12/06 06:48:01;;;;;;;45.38;18.73;;;9.80;83.80;;;;;;5112779;28;20069;-71
2021/12/06 06:50:26;;;;;;;32.35;18.27;;;9.70;84.20;;;;;;5093224;28;20048;-69
2021/12/06 06:52:53;;;;;;;30.52;19.45;;;9.50;84.60;;;;;;5081658;28;20067;-67
2021/12/06 06:55:20;;;;;;;35.85;24.50;;;9.50;85.30;;;;;;5079584;28;20031;-68
2021/12/06 06:57:46;;;;;;;40.38;22.13;;;9.50;85.50;;;;;;5088728;28;20055;-66
2021/12/06 07:00:19;;;;;;;34.28;22.10;;;9.50;85.70;;;;;;5084872;28;20016;-74
2021/12/06 07:02:45;;;;;;;33.75;20.25;;;9.50;86.30;;;;;;5087664;28;20031;-74
2021/12/06 07:05:14;;;;;;;104.03;22.15;;;9.60;86.00;;;;;;5086851;28;20028;-75
2021/12/06 07:07:40;;;;;;;34.85;21.08;;;9.60;86.00;;;;;;5087353;28;20024;-70
2021/12/06 07:10:07;;;;;;;32.97;21.67;;;9.80;84.80;;;;;;5081249;28;20559;-72
2021/12/06 07:12:40;;;;;;;90.70;23.92;;;9.70;85.10;;;;;;5092055;28;20024;-68
2021/12/06 07:15:07;;;;;;;42.15;21.70;;;9.70;85.60;;;;;;5080211;28;20059;-73
2021/12/06 07:17:32;;;;;;;54.90;22.00;;;9.70;85.50;;;;;;5088624;28;20028;-74
2021/12/06 07:20:00;;;;;;;43.00;21.70;;;9.80;85.40;;;;;;5089579;28;20020;-74
2021/12/06 07:22:26;;;;;;;43.13;21.88;;;9.80;85.40;;;;;;5092694;28;20024;-71
2021/12/06 07:24:51;;;;;;;43.03;22.33;;;9.70;85.70;;;;;;5092664;28;20017;-73
2021/12/06 07:27:17;;;;;;;39.10;22.08;;;9.70;85.90;;;;;;5093153;28;20622;-65
2021/12/06 07:29:43;;;;;;;52.08;22.10;;;9.70;86.30;;;;;;5091477;28;20389;-62
2021/12/06 07:32:09;;;;;;;37.47;20.27;;;9.70;86.40;;;;;;5081048;28;20033;-73
2021/12/06 07:34:36;;;;;;;49.55;21.90;;;9.70;85.70;;;;;;5097099;28;20027;-74
2021/12/06 07:37:03;;;;;;;58.60;20.40;;;9.70;85.40;;;;;;5085661;28;20031;-64
2021/12/06 07:39:29;;;;;;;43.08;19.90;;;9.80;85.60;;;;;;5093494;28;20095;-64
2021/12/06 07:41:54;;;;;;;43.03;19.77;;;9.70;85.70;;;;;;5093430;28;20059;-61
2021/12/06 07:44:20;;;;;;;38.15;19.45;;;9.70;85.90;;;;;;5093231;28;20111;-65
2021/12/06 07:46:46;;;;;;;30.48;18.90;;;9.70;86.10;;;;;;5093044;28;20491;-64
2021/12/06 07:49:12;;;;;;;37.28;20.88;;;9.70;85.60;;;;;;5095504;28;20023;-63
2021/12/06 07:51:38;;;;;;;30.73;17.73;;;9.70;85.70;;;;;;5088611;28;20019;-64
2021/12/06 07:54:04;;;;;;;35.42;19.63;;;9.70;85.30;;;;;;5092708;28;20089;-67
2021/12/06 07:56:29;;;;;;;38.35;17.90;;;9.70;85.00;;;;;;5087773;28;20082;-73
2021/12/06 07:58:55;;;;;;;39.15;19.27;;;9.70;85.10;;;;;;5092842;28;20633;-71
2021/12/06 08:01:21;;;;;;;29.58;18.27;;;9.70;85.00;;;;;;5092911;28;20111;-74
2021/12/06 08:03:47;;;;;;;36.05;18.30;;;9.70;84.90;;;;;;5084663;28;20013;-74
2021/12/06 08:06:13;;;;;;;25.90;17.85;;;9.70;84.70;;;;;;5091163;28;20028;-72
2021/12/06 08:08:40;;;;;;;33.53;18.40;;;9.70;84.60;;;;;;5092675;28;20043;-73
2021/12/06 08:11:10;;;;;;;25.95;17.35;;;9.80;84.50;;;;;;5091617;28;20024;-73
2021/12/06 08:13:38;;;;;;;38.47;17.38;;;9.70;84.40;;;;;;5089233;28;20040;-72
2021/12/06 08:16:09;;;;;;;38.47;16.17;;;9.70;84.10;;;;;;5106536;28;20020;-65
2021/12/06 08:18:35;;;;;;;35.92;18.33;;;9.70;84.30;;;;;;5093228;28;20032;-62
2021/12/06 08:21:02;;;;;;;37.60;16.80;;;9.60;84.20;;;;;;5092605;28;20031;-62
2021/12/06 08:23:28;;;;;;;26.80;17.38;;;9.60;84.30;;;;;;5092258;28;20031;-67
2021/12/06 08:25:54;;;;;;;31.30;16.75;;;9.70;84.10;;;;;;5092983;28;20044;-63
2021/12/06 08:28:20;;;;;;;24.80;16.58;;;9.80;83.60;;;;;;5090426;28;20073;-66
2021/12/06 08:30:46;;;;;;;41.53;17.15;;;9.80;83.60;;;;;;5092748;28;20020;-68
2021/12/06 08:33:13;;;;;;;35.78;17.70;;;9.80;84.00;;;;;;5093054;28;20085;-68
2021/12/06 08:35:42;;;;;;;33.92;18.00;;;9.80;84.00;;;;;;5093257;28;20040;-62
2021/12/06 08:38:10;;;;;;;27.58;18.38;;;9.80;83.90;;;;;;5092915;28;20052;-64
2021/12/06 08:40:36;;;;;;;24.80;17.55;;;9.80;83.80;;;;;;5092625;28;20020;-65
2021/12/06 08:43:02;;;;;;;26.83;17.73;;;9.80;83.80;;;;;;5092964;28;20028;-61
2021/12/06 08:45:29;;;;;;;27.42;18.40;;;9.80;83.90;;;;;;5092584;28;20032;-72
2021/12/06 08:47:55;;;;;;;29.63;18.85;;;9.80;84.00;;;;;;5093407;28;20382;-72
2021/12/06 08:50:22;;;;;;;28.70;20.65;;;9.80;84.20;;;;;;5093041;28;20020;-61
2021/12/06 08:52:49;;;;;;;33.45;21.73;;;9.80;84.00;;;;;;5091733;28;20032;-61
2021/12/06 08:55:16;;;;;;;31.98;21.95;;;9.80;83.80;;;;;;5078445;28;20017;-65
2021/12/06 08:57:42;;;;;;;27.80;20.80;;;9.70;84.10;;;;;;5089689;28;20505;-67
2021/12/06 09:00:12;;;;;;;27.67;19.90;;;9.60;84.30;;;;;;5074151;28;20458;-65
2021/12/06 09:02:39;;;;;;;23.15;19.23;;;9.60;84.60;;;;;;5083876;28;20093;-61
2021/12/06 09:05:06;;;;;;;22.85;19.38;;;9.60;84.20;;;;;;5092373;28;20021;-64
2021/12/06 09:07:32;;;;;;;23.35;19.40;;;9.60;84.30;;;;;;5089983;28;20040;-68
2021/12/06 09:09:57;;;;;;;26.50;21.35;;;9.60;84.10;;;;;;5091390;28;20055;-68
2021/12/06 09:12:26;;;;;;;28.38;21.92;;;9.60;84.30;;;;;;5077236;28;20455;-74
2021/12/06 09:14:54;;;;;;;27.80;19.70;;;9.60;84.40;;;;;;5080924;28;20020;-73
2021/12/06 09:17:20;;;;;;;33.42;19.25;;;9.50;85.30;;;;;;5096819;28;20496;-73
2021/12/06 09:19:47;;;;;;;23.60;18.83;;;9.60;85.20;;;;;;5096803;28;20023;-72
2021/12/06 09:22:12;;;;;;;29.48;18.73;;;9.70;85.20;;;;;;5097155;28;20393;-71
2021/12/06 09:24:39;;;;;;;38.03;28.67;;;9.70;85.60;;;;;;5096919;28;20021;-73
2021/12/06 09:27:06;;;;;;;25.17;20.13;;;9.70;85.60;;;;;;5097012;28;20036;-73
2021/12/06 09:29:36;;;;;;;39.95;26.52;;;9.80;85.70;;;;;;5091584;28;20017;-66
2021/12/06 09:32:04;;;;;;;33.40;24.17;;;9.80;85.60;;;;;;5083267;28;20020;-73
2021/12/06 09:34:31;;;;;;;22.75;17.92;;;9.90;85.10;;;;;;5076165;28;20053;-74
2021/12/06 09:36:57;;;;;;;22.73;17.38;;;9.90;85.00;;;;;;5076339;28;20024;-73
2021/12/06 09:39:23;;;;;;;26.30;17.73;;;9.90;85.10;;;;;;5085588;28;20024;-70
2021/12/06 09:41:50;;;;;;;28.30;18.13;;;9.90;85.00;;;;;;5087743;28;20039;-71
2021/12/06 09:44:18;;;;;;;26.08;21.65;;;9.90;84.70;;;;;;5080518;28;20020;-71
2021/12/06 09:46:45;;;;;;;20.98;17.35;;;10.00;84.90;;;;;;5116552;27;20036;-72
2021/12/06 09:49:14;;;;;;;23.85;17.77;;;10.00;84.70;;;;;;5092148;28;20020;-71
2021/12/06 09:51:42;;;;;;;28.48;23.17;;;10.00;84.70;;;;;;5095293;28;20032;-73
2021/12/06 09:54:09;;;;;;;21.73;18.38;;;10.00;84.70;;;;;;5095615;28;20027;-74
2021/12/06 09:56:42;;;;;;;28.25;22.63;;;10.00;84.80;;;;;;5093997;28;20074;-72
2021/12/06 09:59:10;;;;;;;26.10;21.27;;;10.00;84.80;;;;;;5078525;28;20028;-71
2021/12/06 10:01:43;;;;;;;22.27;19.17;;;10.00;84.60;;;;;;5082566;28;20539;-74
2021/12/06 10:04:14;;;;;;;23.75;19.08;;;10.00;84.70;;;;;;5085356;28;20097;-73
2021/12/06 10:06:41;;;;;;;21.85;18.45;;;10.00;84.60;;;;;;5079537;28;20054;-72
2021/12/06 10:09:10;;;;;;;21.65;18.70;;;10.10;84.20;;;;;;5087351;28;20497;-73
2021/12/06 10:11:37;;;;;;;21.35;19.05;;;10.00;83.70;;;;;;5092618;28;20504;-74
2021/12/06 10:14:04;;;;;;;18.33;16.30;;;10.00;83.90;;;;;;5095560;28;20070;-74
2021/12/06 10:16:31;;;;;;;20.25;17.55;;;10.00;84.30;;;;;;5093804;28;20032;-74
2021/12/06 10:18:57;;;;;;;19.98;17.55;;;10.00;84.10;;;;;;5093606;28;20410;-74
2021/12/06 10:21:27;;;;;;;19.63;16.83;;;10.00;84.10;;;;;;5093525;28;20072;-73
2021/12/06 10:23:55;;;;;;;17.58;15.75;;;10.10;84.30;;;;;;5095657;28;20032;-73
2021/12/06 10:26:23;;;;;;;18.45;16.48;;;10.10;84.90;;;;;;5094589;28;20035;-73
2021/12/06 10:28:53;;;;;;;19.45;16.85;;;10.20;83.10;;;;;;5081064;28;20531;-73
2021/12/06 10:31:19;;;;;;;19.17;16.58;;;10.10;82.80;;;;;;5094428;28;20036;-73
2021/12/06 10:33:47;;;;;;;19.50;17.13;;;10.10;83.00;;;;;;5095454;28;20019;-73
2021/12/06 10:36:16;;;;;;;18.83;16.80;;;10.10;83.40;;;;;;5094601;28;20107;-73
2021/12/06 10:38:47;;;;;;;19.90;16.92;;;10.10;83.30;;;;;;5090240;28;20100;-74
2021/12/06 10:41:17;;;;;;;18.70;16.80;;;10.10;82.80;;;;;;5074737;28;20158;-73
2021/12/06 10:43:57;;;;;;;25.08;20.02;;;10.10;82.70;;;;;;5074882;28;20025;-73
2021/12/06 10:46:24;;;;;;;23.80;20.13;;;10.10;82.80;;;;;;5092130;28;20039;-72
2021/12/06 10:48:54;;;;;;;21.05;18.73;;;10.00;83.10;;;;;;5089811;28;20020;-72
2021/12/06 10:51:23;;;;;;;28.42;23.75;;;10.00;83.30;;;;;;5085271;28;20031;-71
2021/12/06 10:54:02;;;;;;;25.30;21.70;;;10.00;83.60;;;;;;5091080;28;20043;-73
2021/12/06 10:57:07;;;;;;;23.73;20.50;;;10.00;84.30;;;;;;5083609;28;20033;-72
2021/12/06 10:59:29;;;;;;;19.45;17.48;;;10.00;84.10;;;;;;5092926;28;20065;-72
2021/12/06 11:01:57;;;;;;;;;;;10.10;84.30;;;;;;5091535;28;20018;-72
2021/12/06 11:04:26;;;;;;;19.15;17.05;;;10.10;84.30;;;;;;5091086;28;19908;-72
2021/12/06 11:06:58;;;;;;;18.55;14.25;;;10.20;84.20;;;;;;5111017;28;20495;-72
2021/12/06 11:09:28;;;;;;;19.85;17.60;;;10.30;86.40;;;;;;5088620;28;20526;-71
2021/12/06 11:11:57;;;;;;;20.92;17.58;;;10.30;83.60;;;;;;5079643;28;20127;-73
2021/12/06 11:14:36;;;;;;;22.13;18.20;;;10.40;83.10;;;;;;5081664;28;20024;-71
2021/12/06 11:17:05;;;;;;;20.08;17.95;;;10.40;83.20;;;;;;5093688;28;20020;-73
2021/12/06 11:19:32;;;;;;;20.40;17.80;;;10.40;83.40;;;;;;5086419;28;20035;-74
2021/12/06 11:22:00;;;;;;;19.98;17.88;;;10.40;83.70;;;;;;5080252;28;20024;-73
2021/12/06 11:24:25;;;;;;;20.80;17.52;;;10.40;83.90;;;;;;5088072;28;20468;-71
2021/12/06 11:27:01;;;;;;;20.30;18.10;;;10.40;84.00;;;;;;5091992;28;20062;-72
2021/12/06 11:29:39;;;;;;;20.10;16.98;;;10.40;84.10;;;;;;5092300;28;20044;-73
2021/12/06 11:32:07;;;;;;;21.33;16.42;;;10.50;84.20;;;;;;5088763;28;20036;-71
2021/12/06 11:34:58;;;;;;;18.50;16.33;;;10.50;84.50;;;;;;5084062;28;20012;-73
2021/12/06 11:37:30;;;;;;;19.25;16.85;;;10.50;84.40;;;;;;5076820;28;20079;-73
2021/12/06 11:40:10;;;;;;;18.40;15.32;;;10.50;84.40;;;;;;5091872;28;20028;-73
2021/12/06 11:42:56;;;;;;;23.75;18.52;;;10.60;84.50;;;;;;5093535;28;20047;-73
2021/12/06 11:45:35;;;;;;;27.20;19.98;;;10.60;84.80;;;;;;5091372;28;20385;-73
2021/12/06 11:48:10;;;;;;;24.60;20.52;;;10.60;85.20;;;;;;5082778;28;20024;-70
2021/12/06 11:50:42;;;;;;;25.13;19.52;;;10.70;85.40;;;;;;5089680;28;20016;-73
2021/12/06 11:53:09;;;;;;;26.92;20.75;;;10.70;85.10;;;;;;5083060;28;20054;-73
2021/12/06 11:55:42;;;;;;;26.52;20.77;;;10.70;85.10;;;;;;5091694;28;20024;-73
2021/12/06 11:58:25;;;;;;;27.25;21.00;;;10.80;85.30;;;;;;5093127;28;20380;-72
2021/12/06 12:01:16;;;;;;;37.88;29.13;;;10.80;84.60;;;;;;5089417;28;20028;-71
2021/12/06 12:03:46;;;;;;;30.00;24.25;;;10.80;84.60;;;;;;5108450;28;20110;-71
2021/12/06 12:06:27;;;;;;;23.45;20.33;;;10.70;84.60;;;;;;5077079;28;20039;-73
2021/12/06 12:09:10;;;;;;;23.15;19.27;;;10.70;84.90;;;;;;5090287;28;20056;-71
2021/12/06 12:12:19;;;;;;;23.48;17.05;;;10.70;85.30;;;;;;5089276;28;20024;-73
2021/12/06 12:14:46;;;;;;;28.38;19.27;;;10.80;85.40;;;;;;5036949;28;20079;-73
2021/12/06 12:17:19;;;;;;;19.77;14.43;;;10.90;85.20;;;;;;5077863;28;20037;-72
2021/12/06 12:19:47;;;;;;;14.73;10.98;;;10.90;84.40;;;;;;5086268;28;20040;-72
2021/12/06 12:22:14;;;;;;;18.50;12.05;;;10.90;82.40;;;;;;5097571;28;20381;-72
2021/12/06 12:24:44;;;;;;;13.82;11.38;;;11.00;82.00;;;;;;5087977;28;20418;-71
2021/12/06 12:27:24;;;;;;;13.75;11.07;;;11.00;81.70;;;;;;5096126;28;20038;-68
2021/12/06 12:29:54;;;;;;;9.80;8.57;;;11.00;81.20;;;;;;5099697;28;20438;-72
2021/12/06 12:32:20;;;;;;;11.70;10.27;;;11.00;85.60;;;;;;5093370;28;20028;-68
2021/12/06 12:34:49;;;;;;;11.38;9.65;;;11.10;81.60;;;;;;5086493;28;20024;-71
2021/12/06 12:37:17;;;;;;;18.55;10.43;;;11.20;80.50;;;;;;5072966;28;20039;-71
2021/12/06 12:39:59;;;;;;;13.20;10.75;;;11.20;81.20;;;;;;5075083;28;20024;-61
2021/12/06 12:42:25;;;;;;;13.00;11.38;;;11.10;79.20;;;;;;5083467;28;20025;-64
2021/12/06 12:44:53;;;;;;;11.48;10.27;;;11.10;78.70;;;;;;5076729;28;20025;-63